createdAt,value
2018-02-15T00:01:30.924Z,13.90
2018-02-15T00:03:34.286Z,12.07
2018-02-15T00:05:37.690Z,13.10
2018-02-15T00:07:41.084Z,12.60
2018-02-15T00:09:44.483Z,12.77
2018-02-15T00:11:47.895Z,10.83
2018-02-15T00:13:51.341Z,12.37
2018-02-15T00:15:54.730Z,12.70
2018-02-15T00:17:58.076Z,12.10
2018-02-15T00:20:01.438Z,13.05
2018-02-15T00:22:04.776Z,12.70
2018-02-15T00:24:08.956Z,12.90
2018-02-15T00:26:12.538Z,13.00
2018-02-15T00:28:15.915Z,13.60
2018-02-15T00:30:20.050Z,12.67
2018-02-15T00:32:23.404Z,13.57
2018-02-15T00:34:27.580Z,12.90
2018-02-15T00:36:30.909Z,12.70
2018-02-15T00:38:34.299Z,13.23
2018-02-15T00:40:37.694Z,11.50
2018-02-15T00:42:41.806Z,12.53
2018-02-15T00:44:46.098Z,12.07
2018-02-15T00:46:49.461Z,13.60
2018-02-15T00:48:52.810Z,12.90
2018-02-15T00:50:56.196Z,11.83
2018-02-15T00:52:59.582Z,12.50
2018-02-15T00:55:03.728Z,11.43
2018-02-15T00:57:07.154Z,13.30
2018-02-15T00:59:10.492Z,12.20
2018-02-15T01:01:14.624Z,11.85
2018-02-15T01:03:17.976Z,11.43
2018-02-15T01:05:22.150Z,13.07
2018-02-15T01:07:25.522Z,12.07
2018-02-15T01:09:28.872Z,12.00
2018-02-15T01:11:33.026Z,12.63
2018-02-15T01:13:36.393Z,13.90
2018-02-15T01:15:40.556Z,12.55
2018-02-15T01:17:43.892Z,11.38
2018-02-15T01:19:47.984Z,11.15
2018-02-15T01:21:52.116Z,13.20
2018-02-15T01:23:55.509Z,11.85
2018-02-15T01:25:58.910Z,12.45
2018-02-15T01:28:02.251Z,11.30
2018-02-15T01:30:05.595Z,13.55
2018-02-15T01:32:08.993Z,14.00
2018-02-15T01:34:12.343Z,13.77
2018-02-15T01:36:16.534Z,11.75
2018-02-15T01:38:19.880Z,12.70
2018-02-15T01:40:23.216Z,13.37
2018-02-15T01:42:27.406Z,12.25
2018-02-15T01:44:31.908Z,12.80
2018-02-15T01:46:35.369Z,12.87
2018-02-15T01:48:39.520Z,11.87
2018-02-15T01:50:42.872Z,11.82
2018-02-15T01:52:46.273Z,12.57
2018-02-15T01:54:49.631Z,11.60
2018-02-15T01:56:53.004Z,12.90
2018-02-15T01:58:56.368Z,12.88
2018-02-15T02:00:59.715Z,12.10
2018-02-15T02:03:03.109Z,11.87
2018-02-15T02:05:06.461Z,12.37
2018-02-15T02:07:09.802Z,13.83
2018-02-15T02:09:13.911Z,12.65
2018-02-15T02:11:18.007Z,12.30
2018-02-15T02:13:22.379Z,13.00
2018-02-15T02:15:25.721Z,12.10
2018-02-15T02:17:29.071Z,12.67
2018-02-15T02:19:32.706Z,12.63
2018-02-15T02:21:36.092Z,12.67
2018-02-15T02:23:40.264Z,11.33
2018-02-15T02:25:43.633Z,12.80
2018-02-15T02:27:47.004Z,12.65
2018-02-15T02:29:50.372Z,12.70
2018-02-15T02:31:53.711Z,12.47
2018-02-15T02:33:57.054Z,13.50
2018-02-15T02:36:00.453Z,12.77
2018-02-15T02:38:03.804Z,13.03
2018-02-15T02:40:07.211Z,12.90
2018-02-15T02:42:10.567Z,12.80
2018-02-15T02:44:13.923Z,14.10
2018-02-15T02:46:17.283Z,12.80
2018-02-15T02:48:20.643Z,13.40
2018-02-15T02:50:23.996Z,12.80
2018-02-15T02:52:28.106Z,12.37
2018-02-15T02:54:32.242Z,11.60
2018-02-15T02:56:36.402Z,12.77
2018-02-15T02:58:39.747Z,11.83
2018-02-15T03:00:43.113Z,12.20
2018-02-15T03:02:47.246Z,12.33
2018-02-15T03:04:51.357Z,11.10
2018-02-15T03:06:54.756Z,11.97
2018-02-15T03:08:58.120Z,13.00
2018-02-15T03:11:02.283Z,13.73
2018-02-15T03:13:05.636Z,11.70
2018-02-15T03:15:09.053Z,12.40
2018-02-15T03:17:12.440Z,11.90
2018-02-15T03:19:15.853Z,12.23
2018-02-15T03:21:19.230Z,12.83
2018-02-15T03:23:22.594Z,11.40
2018-02-15T03:25:26.706Z,11.73
2018-02-15T03:27:30.095Z,12.47
2018-02-15T03:29:33.474Z,10.90
2018-02-15T03:31:36.817Z,12.30
2018-02-15T03:33:40.198Z,10.93
2018-02-15T03:35:43.785Z,12.67
2018-02-15T03:37:47.248Z,12.07
2018-02-15T03:39:50.588Z,12.90
2018-02-15T03:41:53.947Z,12.50
2018-02-15T03:43:57.557Z,11.80
2018-02-15T03:46:01.566Z,13.83
2018-02-15T03:48:04.985Z,12.67
2018-02-15T03:50:08.374Z,12.60
2018-02-15T03:52:11.757Z,12.73
2018-02-15T03:54:15.182Z,12.90
2018-02-15T03:56:18.554Z,13.40
2018-02-15T03:58:21.944Z,12.40
2018-02-15T04:00:25.282Z,12.50
2018-02-15T04:02:28.673Z,12.03
2018-02-15T04:04:32.860Z,12.00
2018-02-15T04:06:36.226Z,12.67
2018-02-15T04:08:39.603Z,13.70
2018-02-15T04:10:42.997Z,12.43
2018-02-15T04:12:46.358Z,13.00
2018-02-15T04:14:49.755Z,12.53
2018-02-15T04:16:53.126Z,13.50
2018-02-15T04:18:56.466Z,12.37
2018-02-15T04:20:59.833Z,12.17
2018-02-15T04:23:03.953Z,13.27
2018-02-15T04:25:07.359Z,12.27
2018-02-15T04:27:10.731Z,12.60
2018-02-15T04:29:14.769Z,11.33
2018-02-15T04:31:18.133Z,11.37
2018-02-15T04:33:22.244Z,11.67
2018-02-15T04:35:26.389Z,11.90
2018-02-15T04:37:29.773Z,12.63
2018-02-15T04:39:33.174Z,11.13
2018-02-15T04:41:36.634Z,11.63
2018-02-15T04:43:40.737Z,11.90
2018-02-15T04:45:44.896Z,11.97
2018-02-15T04:47:48.250Z,10.17
2018-02-15T04:49:51.589Z,10.43
2018-02-15T04:51:54.926Z,11.43
2018-02-15T04:53:59.036Z,11.33
2018-02-15T04:56:02.459Z,10.80
2018-02-15T04:58:06.735Z,10.80
2018-02-15T05:00:10.944Z,11.13
2018-02-15T05:02:14.707Z,10.17
2018-02-15T05:04:18.037Z,9.83
2018-02-15T05:06:22.149Z,9.90
2018-02-15T05:08:26.252Z,12.00
2018-02-15T05:10:30.734Z,12.47
2018-02-15T05:12:34.116Z,12.50
2018-02-15T05:14:37.459Z,11.53
2018-02-15T05:16:41.537Z,13.33
2018-02-15T05:18:44.923Z,12.40
2018-02-15T05:20:48.277Z,11.20
2018-02-15T05:22:51.660Z,12.10
2018-02-15T05:24:55.010Z,12.83
2018-02-15T05:26:58.360Z,13.07
2018-02-15T05:29:01.718Z,13.40
2018-02-15T05:31:05.088Z,13.03
2018-02-15T05:33:08.465Z,11.27
2018-02-15T05:35:16.465Z,13.43
2018-02-15T05:37:19.827Z,13.13
2018-02-15T05:39:23.321Z,12.50
2018-02-15T05:41:27.018Z,13.17
2018-02-15T05:43:31.130Z,11.90
2018-02-15T05:45:34.612Z,12.90
2018-02-15T05:47:37.983Z,14.10
2018-02-15T05:49:42.133Z,14.53
2018-02-15T05:51:45.801Z,11.90
2018-02-15T05:53:53.655Z,13.43
2018-02-15T05:55:57.819Z,13.60
2018-02-15T05:58:01.183Z,13.77
2018-02-15T06:00:05.821Z,13.33
2018-02-15T06:02:09.559Z,14.23
2018-02-15T06:04:12.989Z,14.43
2018-02-15T06:06:19.140Z,13.00
2018-02-15T06:08:23.970Z,14.97
2018-02-15T06:10:28.293Z,14.17
2018-02-15T06:12:31.690Z,12.50
2018-02-15T06:14:35.955Z,14.63
2018-02-15T06:16:39.390Z,15.10
2018-02-15T06:18:43.699Z,13.47
2018-02-15T06:20:47.882Z,13.90
2018-02-15T06:22:51.961Z,13.50
2018-02-15T06:24:58.208Z,14.57
2018-02-15T06:27:01.678Z,13.50
2018-02-15T06:29:05.067Z,13.90
2018-02-15T06:31:09.822Z,14.40
2018-02-15T06:33:14.161Z,14.20
2018-02-15T06:35:17.600Z,17.47
2018-02-15T06:37:21.800Z,14.17
2018-02-15T06:39:25.925Z,15.20
2018-02-15T06:41:30.186Z,13.43
2018-02-15T06:43:33.547Z,15.53
2018-02-15T06:45:36.900Z,13.70
2018-02-15T06:47:40.332Z,15.73
2018-02-15T06:49:43.795Z,14.57
2018-02-15T06:51:47.127Z,15.53
2018-02-15T06:53:50.493Z,15.67
2018-02-15T06:55:54.590Z,15.07
2018-02-15T06:57:57.909Z,16.17
2018-02-15T07:00:01.260Z,16.27
2018-02-15T07:02:05.395Z,16.00
2018-02-15T07:04:09.510Z,14.20
2018-02-15T07:06:13.620Z,17.10
2018-02-15T07:08:17.780Z,15.73
2018-02-15T07:10:21.165Z,16.67
2018-02-15T07:12:24.500Z,18.23
2018-02-15T07:14:28.598Z,16.13
2018-02-15T07:16:31.961Z,17.87
2018-02-15T07:18:35.333Z,16.27
2018-02-15T07:20:38.721Z,17.43
2018-02-15T07:22:42.075Z,16.00
2018-02-15T07:24:45.473Z,15.33
2018-02-15T07:26:49.584Z,15.53
2018-02-15T07:28:53.682Z,15.63
2018-02-15T07:30:57.796Z,13.73
2018-02-15T07:33:01.912Z,16.17
2018-02-15T07:35:06.006Z,15.40
2018-02-15T07:37:09.333Z,15.23
2018-02-15T07:39:12.695Z,14.30
2018-02-15T07:41:16.814Z,14.10
2018-02-15T07:43:20.972Z,12.50
2018-02-15T07:45:24.370Z,15.17
2018-02-15T07:47:27.731Z,14.83
2018-02-15T07:49:31.105Z,12.77
2018-02-15T07:51:35.253Z,13.40
2018-02-15T07:53:38.636Z,13.40
2018-02-15T07:55:41.986Z,13.33
2018-02-15T07:57:45.367Z,13.53
2018-02-15T07:59:48.707Z,14.00
2018-02-15T08:01:52.047Z,12.27
2018-02-15T08:03:55.391Z,14.73
2018-02-15T08:05:58.721Z,12.63
2018-02-15T08:08:02.037Z,12.17
2018-02-15T08:10:06.157Z,11.70
2018-02-15T08:12:09.503Z,12.20
2018-02-15T08:14:12.883Z,12.53
2018-02-15T08:16:16.245Z,12.93
2018-02-15T08:18:19.564Z,12.47
2018-02-15T08:20:22.923Z,12.20
2018-02-15T08:22:26.244Z,12.57
2018-02-15T08:24:29.614Z,13.73
2018-02-15T08:26:32.939Z,14.13
2018-02-15T08:28:36.294Z,12.23
2018-02-15T08:30:39.635Z,11.80
2018-02-15T08:32:42.978Z,13.30
2018-02-15T08:34:46.324Z,13.13
2018-02-15T08:36:49.657Z,13.67
2018-02-15T08:38:53.053Z,12.20
2018-02-15T08:40:56.429Z,11.90
2018-02-15T08:43:00.554Z,12.53
2018-02-15T08:45:03.914Z,13.17
2018-02-15T08:47:08.082Z,13.27
2018-02-15T08:49:12.176Z,11.03
2018-02-15T08:51:15.540Z,13.70
2018-02-15T08:53:20.608Z,13.30
2018-02-15T08:55:24.020Z,15.20
2018-02-15T08:57:27.377Z,12.23
2018-02-15T08:59:30.760Z,15.17
2018-02-15T09:01:34.888Z,14.47
2018-02-15T09:03:38.263Z,12.60
2018-02-15T09:05:41.603Z,14.20
2018-02-15T09:07:44.963Z,13.40
2018-02-15T09:09:48.383Z,14.53
2018-02-15T09:11:51.995Z,14.00
2018-02-15T09:13:55.326Z,13.00
2018-02-15T09:15:58.695Z,12.57
2018-02-15T09:18:02.087Z,13.67
2018-02-15T09:20:06.203Z,13.53
2018-02-15T09:22:09.588Z,13.10
2018-02-15T09:24:13.720Z,13.77
2018-02-15T09:26:18.327Z,15.10
2018-02-15T09:28:21.689Z,14.57
2018-02-15T09:30:25.909Z,12.67
2018-02-15T09:32:30.654Z,14.03
2018-02-15T09:34:34.075Z,14.17
2018-02-15T09:36:37.417Z,11.00
2018-02-15T09:38:40.752Z,11.77
2018-02-15T09:40:44.124Z,12.47
2018-02-15T09:42:47.489Z,13.43
2018-02-15T09:44:50.834Z,14.13
2018-02-15T09:46:55.037Z,12.80
2018-02-15T09:48:58.426Z,12.13
2018-02-15T09:51:01.818Z,14.03
2018-02-15T09:53:05.788Z,13.13
2018-02-15T09:55:09.972Z,12.97
2018-02-15T09:57:13.312Z,13.87
2018-02-15T09:59:17.989Z,12.70
2018-02-15T10:01:21.477Z,13.43
2018-02-15T10:03:24.841Z,14.23
2018-02-15T10:05:28.204Z,12.47
2018-02-15T10:07:31.623Z,12.00
2018-02-15T10:09:34.995Z,12.17
2018-02-15T10:11:38.410Z,15.70
2018-02-15T10:13:41.745Z,11.00
2018-02-15T10:15:45.303Z,12.87
2018-02-15T10:17:48.699Z,12.43
2018-02-15T10:19:52.037Z,11.83
2018-02-15T10:21:56.479Z,11.97
2018-02-15T10:23:59.866Z,11.70
2018-02-15T10:26:03.950Z,11.73
2018-02-15T10:28:08.104Z,12.00
2018-02-15T10:30:11.446Z,12.90
2018-02-15T10:32:14.800Z,12.73
2018-02-15T10:34:18.131Z,12.00
2018-02-15T10:36:21.477Z,14.63
2018-02-15T10:38:24.846Z,12.13
2018-02-15T10:40:28.209Z,13.70
2018-02-15T10:42:31.559Z,11.77
2018-02-15T10:44:34.920Z,13.00
2018-02-15T10:46:38.273Z,11.97
2018-02-15T10:48:41.616Z,12.80
2018-02-15T10:50:44.948Z,11.73
2018-02-15T10:52:48.296Z,13.30
2018-02-15T10:54:51.685Z,12.37
2018-02-15T10:56:55.059Z,12.73
2018-02-15T10:58:58.422Z,12.20
2018-02-15T11:01:07.394Z,12.27
2018-02-15T11:03:16.492Z,13.60
2018-02-15T11:05:25.724Z,12.50
2018-02-15T11:07:29.912Z,13.67
2018-02-15T11:09:33.279Z,12.63
2018-02-15T11:11:36.648Z,12.60
2018-02-15T11:13:40.087Z,12.27
2018-02-15T11:15:44.530Z,12.20
2018-02-15T11:17:47.925Z,13.40
2018-02-15T11:19:51.270Z,12.20
2018-02-15T11:21:55.444Z,12.77
2018-02-15T11:23:58.868Z,11.90
2018-02-15T11:26:03.812Z,13.20
2018-02-15T11:28:07.177Z,13.00
2018-02-15T11:30:10.535Z,12.53
2018-02-15T11:32:13.898Z,10.90
2018-02-15T11:34:17.385Z,11.63
2018-02-15T11:36:20.747Z,11.87
2018-02-15T11:38:24.146Z,13.77
2018-02-15T11:40:28.358Z,12.40
2018-02-15T11:42:31.732Z,13.50
2018-02-15T11:44:35.838Z,12.07
2018-02-15T11:46:39.255Z,12.87
2018-02-15T11:48:42.597Z,11.60
2018-02-15T11:50:47.569Z,12.23
2018-02-15T11:52:51.092Z,12.50
2018-02-15T11:54:54.552Z,11.07
2018-02-15T11:56:58.199Z,11.73
2018-02-15T11:59:02.316Z,12.50
2018-02-15T12:01:06.488Z,11.77
2018-02-15T12:03:09.818Z,10.13
2018-02-15T12:05:13.208Z,10.93
2018-02-15T12:07:16.563Z,10.27
2018-02-15T12:09:19.904Z,10.33
2018-02-15T12:11:24.045Z,10.50
2018-02-15T12:13:27.396Z,11.17
2018-02-15T12:15:30.796Z,11.00
2018-02-15T12:17:34.999Z,11.43
2018-02-15T12:19:38.428Z,11.27
2018-02-15T12:21:43.051Z,13.20
2018-02-15T12:23:46.412Z,12.00
2018-02-15T12:25:49.853Z,11.93
2018-02-15T12:27:53.234Z,11.07
2018-02-15T12:29:56.656Z,12.47
2018-02-15T12:32:01.172Z,10.83
2018-02-15T12:34:08.738Z,11.00
2018-02-15T12:36:13.416Z,12.77
2018-02-15T12:38:17.638Z,15.67
2018-02-15T12:40:22.608Z,15.80
2018-02-15T12:42:26.774Z,16.83
2018-02-15T12:44:30.884Z,16.47
2018-02-15T12:46:35.097Z,15.37
2018-02-15T12:48:38.538Z,16.40
2018-02-15T12:50:41.867Z,21.27
2018-02-15T12:52:45.348Z,16.23
2018-02-15T12:54:49.501Z,14.13
2018-02-15T12:56:53.000Z,17.40
2018-02-15T12:58:56.382Z,14.30
2018-02-15T13:01:01.440Z,14.93
2018-02-15T13:03:05.623Z,13.30
2018-02-15T13:05:09.748Z,12.90
2018-02-15T13:07:13.098Z,14.17
2018-02-15T13:09:16.509Z,13.57
2018-02-15T13:11:20.692Z,14.10
2018-02-15T13:13:35.090Z,13.80
2018-02-15T13:15:51.409Z,13.77
2018-02-15T13:17:54.878Z,13.10
2018-02-15T13:22:47.504Z,15.37
2018-02-15T13:24:51.662Z,13.70
2018-02-15T13:26:55.269Z,14.27
2018-02-15T13:28:58.714Z,14.37
2018-02-15T13:31:03.880Z,15.43
2018-02-15T13:33:07.262Z,15.20
2018-02-15T13:35:11.488Z,14.87
2018-02-15T13:37:15.811Z,14.77
2018-02-15T13:39:19.201Z,13.67
2018-02-15T13:41:22.675Z,14.77
2018-02-15T13:43:26.132Z,15.50
2018-02-15T13:45:29.529Z,13.47
2018-02-15T13:47:33.988Z,14.90
2018-02-15T13:49:38.191Z,14.60
2018-02-15T13:51:41.555Z,15.13
2018-02-15T13:53:45.884Z,15.10
2018-02-15T13:55:50.153Z,14.40
2018-02-15T13:57:59.620Z,14.97
2018-02-15T14:00:03.096Z,19.23
2018-02-15T14:02:07.293Z,16.60
2018-02-15T14:04:11.638Z,14.50
2018-02-15T14:06:16.453Z,14.90
2018-02-15T14:08:19.812Z,15.47
2018-02-15T14:10:23.272Z,14.73
2018-02-15T14:12:26.625Z,14.93
2018-02-15T14:14:30.044Z,14.03
2018-02-15T14:16:33.608Z,15.43
2018-02-15T14:18:36.975Z,15.77
2018-02-15T14:20:40.398Z,15.17
2018-02-15T14:22:44.537Z,16.30
2018-02-15T14:24:49.177Z,17.47
2018-02-15T14:26:53.215Z,16.00
2018-02-15T14:29:01.065Z,15.47
2018-02-15T14:31:06.086Z,15.03
2018-02-15T14:33:10.706Z,14.50
2018-02-15T14:35:15.006Z,14.00
2018-02-15T14:37:19.133Z,14.23
2018-02-15T14:39:23.226Z,13.90
2018-02-15T14:41:27.606Z,14.20
2018-02-15T14:43:31.005Z,14.13
2018-02-15T14:45:34.408Z,12.20
2018-02-15T14:47:37.787Z,12.57
2018-02-15T14:49:41.180Z,12.67
2018-02-15T14:51:44.582Z,11.03
2018-02-15T14:53:47.946Z,12.00
2018-02-15T14:55:51.357Z,11.77
2018-02-15T14:57:54.712Z,12.10
2018-02-15T14:59:58.223Z,12.00
2018-02-15T15:02:01.754Z,11.83
2018-02-15T15:04:06.116Z,12.10
2018-02-15T15:06:10.231Z,11.90
2018-02-15T15:08:13.751Z,11.53
2018-02-15T15:10:17.180Z,11.77
2018-02-15T15:12:21.367Z,11.00
2018-02-15T15:14:25.399Z,11.80
2018-02-15T15:16:29.124Z,11.50
2018-02-15T15:18:32.560Z,13.80
2018-02-15T15:20:35.962Z,13.13
2018-02-15T15:22:39.355Z,12.50
2018-02-15T15:24:42.761Z,11.30
2018-02-15T15:26:46.109Z,15.60
2018-02-15T15:28:49.450Z,11.50
2018-02-15T15:30:52.946Z,11.67
2018-02-15T15:32:56.357Z,12.80
2018-02-15T15:34:59.813Z,10.60
2018-02-15T15:37:03.211Z,9.00
2018-02-15T15:39:06.617Z,9.13
2018-02-15T15:41:10.014Z,9.97
2018-02-15T15:43:16.270Z,10.17
2018-02-15T15:45:20.542Z,8.77
2018-02-15T15:47:24.910Z,9.70
2018-02-15T15:49:29.500Z,9.13
2018-02-15T15:51:33.009Z,9.77
2018-02-15T15:53:38.216Z,13.67
2018-02-15T15:55:41.829Z,10.67
2018-02-15T15:57:47.132Z,10.60
2018-02-15T15:59:50.864Z,10.20
2018-02-15T16:01:54.321Z,12.53
2018-02-15T16:03:58.549Z,14.00
2018-02-15T16:06:01.917Z,12.47
2018-02-15T16:08:07.287Z,12.27
2018-02-15T16:10:12.349Z,13.00
2018-02-15T16:12:16.618Z,12.00
2018-02-15T16:14:27.574Z,10.63
2018-02-15T16:16:32.821Z,11.83
2018-02-15T16:18:36.284Z,11.80
2018-02-15T16:20:40.748Z,13.13
2018-02-15T16:22:44.093Z,11.03
2018-02-15T16:24:47.484Z,10.47
2018-02-15T16:26:52.393Z,10.20
2018-02-15T16:28:55.782Z,10.77
2018-02-15T16:30:59.263Z,12.57
2018-02-15T16:33:03.420Z,10.63
2018-02-15T16:35:07.745Z,9.10
2018-02-15T16:37:11.157Z,11.70
2018-02-15T16:39:14.493Z,11.60
2018-02-15T16:41:18.036Z,9.30
2018-02-15T16:43:22.056Z,8.83
2018-02-15T16:45:27.762Z,9.67
2018-02-15T16:47:32.966Z,9.97
2018-02-15T16:49:37.074Z,9.87
2018-02-15T16:51:41.211Z,11.37
2018-02-15T16:53:44.909Z,12.90
2018-02-15T16:55:48.274Z,11.33
2018-02-15T16:57:52.431Z,12.40
2018-02-15T16:59:57.655Z,12.17
2018-02-15T17:02:01.346Z,9.83
2018-02-15T17:04:04.715Z,9.87
2018-02-15T17:06:08.063Z,10.97
2018-02-15T17:08:11.498Z,12.27
2018-02-15T17:10:14.847Z,12.20
2018-02-15T17:12:18.287Z,10.50
2018-02-15T17:14:22.619Z,10.70
2018-02-15T17:16:26.098Z,14.00
2018-02-15T17:18:29.450Z,15.83
2018-02-15T17:20:32.823Z,18.33
2018-02-15T17:22:37.693Z,13.77
2018-02-15T17:24:41.022Z,14.70
2018-02-15T17:26:46.529Z,12.50
2018-02-15T17:28:49.982Z,12.43
2018-02-15T17:30:53.970Z,11.43
2018-02-15T17:32:57.363Z,12.20
2018-02-15T17:35:01.514Z,12.53
2018-02-15T17:37:06.709Z,13.20
2018-02-15T17:39:10.113Z,13.40
2018-02-15T17:41:13.594Z,12.70
2018-02-15T17:43:17.074Z,12.20
2018-02-15T17:45:21.202Z,11.77
2018-02-15T17:47:24.601Z,11.33
2018-02-15T17:49:27.960Z,13.70
2018-02-15T17:51:31.516Z,13.07
2018-02-15T17:53:34.920Z,16.60
2018-02-15T17:55:39.102Z,21.30
2018-02-15T17:57:42.658Z,21.60
2018-02-15T17:59:46.876Z,14.77
2018-02-15T18:01:50.296Z,14.50
2018-02-15T18:03:53.659Z,15.30
2018-02-15T18:05:57.228Z,12.33
2018-02-15T18:08:01.372Z,13.30
2018-02-15T18:10:04.765Z,12.80
2018-02-15T18:12:09.087Z,13.13
2018-02-15T18:14:12.541Z,11.23
2018-02-15T18:16:15.950Z,11.37
2018-02-15T18:18:20.363Z,12.10
2018-02-15T18:20:23.784Z,11.17
2018-02-15T18:22:27.885Z,11.63
2018-02-15T18:24:32.150Z,11.57
2018-02-15T18:26:35.459Z,11.90
2018-02-15T18:28:38.791Z,11.60
2018-02-15T18:30:44.126Z,10.60
2018-02-15T18:32:47.448Z,10.57
2018-02-15T18:34:51.603Z,10.10
2018-02-15T18:36:56.551Z,9.90
2018-02-15T18:39:00.639Z,8.90
2018-02-15T18:41:04.257Z,9.60
2018-02-15T18:43:08.354Z,9.80
2018-02-15T18:45:12.628Z,8.37
2018-02-15T18:47:16.092Z,9.47
2018-02-15T18:49:19.674Z,8.17
2018-02-15T18:51:23.833Z,9.20
2018-02-15T18:53:27.178Z,12.67
2018-02-15T18:55:30.528Z,16.27
2018-02-15T18:57:33.937Z,18.23
2018-02-15T18:59:38.037Z,16.50
2018-02-15T19:01:41.372Z,16.63
2018-02-15T19:03:44.739Z,26.70
2018-02-15T19:05:48.164Z,29.10
2018-02-15T19:07:53.285Z,26.07
2018-02-15T19:09:57.875Z,26.13
2018-02-15T19:12:01.234Z,26.30
2018-02-15T19:14:05.429Z,23.80
2018-02-15T19:16:08.758Z,26.23
2018-02-15T19:18:12.900Z,27.00
2018-02-15T19:20:16.994Z,17.93
2018-02-15T19:22:20.324Z,16.40
2018-02-15T19:24:23.683Z,16.30
2018-02-15T19:26:27.021Z,25.03
2018-02-15T19:28:30.402Z,23.47
2018-02-15T19:30:33.750Z,16.33
2018-02-15T19:32:38.740Z,16.00
2018-02-15T19:34:43.555Z,15.27
2018-02-15T19:36:46.919Z,18.67
2018-02-15T19:38:50.302Z,21.70
2018-02-15T19:40:54.464Z,19.53
2018-02-15T19:42:57.797Z,16.83
2018-02-15T19:45:01.981Z,18.13
2018-02-15T19:47:05.358Z,16.97
2018-02-15T19:49:08.742Z,17.10
2018-02-15T19:51:12.138Z,18.70
2018-02-15T19:53:15.474Z,18.30
2018-02-15T19:55:18.850Z,15.77
2018-02-15T19:57:22.419Z,14.20
2018-02-15T19:59:26.685Z,13.27
2018-02-15T20:01:30.099Z,14.37
2018-02-15T20:03:33.478Z,14.67
2018-02-15T20:05:37.605Z,13.73
2018-02-15T20:07:40.967Z,13.93
2018-02-15T20:09:45.065Z,13.63
2018-02-15T20:11:49.177Z,13.03
2018-02-15T20:13:53.295Z,13.00
2018-02-15T20:15:56.654Z,13.50
2018-02-15T20:18:00.031Z,14.83
2018-02-15T20:20:08.959Z,12.83
2018-02-15T20:22:13.147Z,13.03
2018-02-15T20:24:16.575Z,12.40
2018-02-15T20:26:40.754Z,12.57
2018-02-15T20:28:44.089Z,12.30
2018-02-15T20:30:48.345Z,16.20
2018-02-15T20:32:51.875Z,28.17
2018-02-15T20:34:55.585Z,27.17
2018-02-15T20:37:00.026Z,23.67
2018-02-15T20:39:09.005Z,26.83
2018-02-15T20:41:12.363Z,23.00
2018-02-15T20:43:15.709Z,18.23
2018-02-15T20:45:19.849Z,15.03
2018-02-15T20:47:23.201Z,14.77
2018-02-15T20:49:32.233Z,17.60
2018-02-15T20:51:41.237Z,17.00
2018-02-15T20:53:50.299Z,17.77
2018-02-15T20:55:53.697Z,16.60
2018-02-15T20:57:57.107Z,16.63
2018-02-15T21:00:00.476Z,15.33
2018-02-15T21:02:03.965Z,16.30
2018-02-15T21:04:07.353Z,15.17
2018-02-15T21:06:10.818Z,14.83
2018-02-15T21:08:14.138Z,15.83
2018-02-15T21:10:18.279Z,23.77
2018-02-15T21:12:21.682Z,18.50
2018-02-15T21:14:25.058Z,18.60
2018-02-15T21:16:28.400Z,18.77
2018-02-15T21:18:31.806Z,19.07
2018-02-15T21:20:35.918Z,18.87
2018-02-15T21:22:40.105Z,16.73
2018-02-15T21:24:43.567Z,15.60
2018-02-15T21:26:46.923Z,16.70
2018-02-15T21:28:51.213Z,16.20
2018-02-15T21:30:54.982Z,20.73
2018-02-15T21:32:58.455Z,23.67
2018-02-15T21:35:01.838Z,18.00
2018-02-15T21:37:05.234Z,25.00
2018-02-15T21:39:08.626Z,24.57
2018-02-15T21:41:12.233Z,19.73
2018-02-15T21:43:15.594Z,16.57
2018-02-15T21:45:19.722Z,17.50
2018-02-15T21:47:23.129Z,17.10
2018-02-15T21:49:27.561Z,17.10
2018-02-15T21:51:31.620Z,15.93
2018-02-15T21:53:35.783Z,18.33
2018-02-15T21:55:40.835Z,15.20
2018-02-15T21:57:45.997Z,13.33
2018-02-15T21:59:49.400Z,13.10
2018-02-15T22:01:52.831Z,12.60
2018-02-15T22:03:56.176Z,10.63
2018-02-15T22:06:00.421Z,11.13
2018-02-15T22:08:03.811Z,16.37
2018-02-15T22:10:07.961Z,14.43
2018-02-15T22:12:11.349Z,21.57
2018-02-15T22:14:14.706Z,21.20
2018-02-15T22:16:18.098Z,22.20
2018-02-15T22:18:21.461Z,24.47
2018-02-15T22:20:25.627Z,23.43
2018-02-15T22:22:29.001Z,27.03
2018-02-15T22:24:32.326Z,24.90
2018-02-15T22:26:35.719Z,21.97
2018-02-15T22:28:39.212Z,26.33
2018-02-15T22:30:42.729Z,28.30
2018-02-15T22:32:47.324Z,24.03
2018-02-15T22:34:52.328Z,20.47
2018-02-15T22:36:55.866Z,20.63
2018-02-15T22:38:59.325Z,18.70
2018-02-15T22:41:03.042Z,19.37
2018-02-15T22:43:08.431Z,15.03
2018-02-15T22:45:11.774Z,15.20
2018-02-15T22:47:15.312Z,13.93
2018-02-15T22:49:18.878Z,14.93
2018-02-15T22:51:24.710Z,15.13
2018-02-15T22:53:28.914Z,15.60
2018-02-15T22:55:32.456Z,17.13
2018-02-15T22:57:36.490Z,18.37
2018-02-15T22:59:40.139Z,19.07
2018-02-15T23:01:44.448Z,20.50
2018-02-15T23:03:47.821Z,20.53
2018-02-15T23:05:51.217Z,20.40
2018-02-15T23:07:56.925Z,21.37
2018-02-15T23:10:00.701Z,23.73
2018-02-15T23:12:04.880Z,21.87
2018-02-15T23:14:11.171Z,21.67
2018-02-15T23:16:15.830Z,20.67
2018-02-15T23:18:19.338Z,21.63
2018-02-15T23:20:22.683Z,22.03
2018-02-15T23:22:26.049Z,20.97
2018-02-15T23:24:29.645Z,22.70
2018-02-15T23:26:33.415Z,25.40
2018-02-15T23:28:38.496Z,27.80
2018-02-15T23:30:42.622Z,24.27
2018-02-15T23:32:46.503Z,21.10
2018-02-15T23:34:50.193Z,19.50
2018-02-15T23:36:54.276Z,19.80
2018-02-15T23:38:57.796Z,19.00
2018-02-15T23:41:01.438Z,18.37
2018-02-15T23:43:04.816Z,19.50
2018-02-15T23:45:11.967Z,19.40
2018-02-15T23:47:18.923Z,20.77
2018-02-15T23:49:22.440Z,21.37
2018-02-15T23:51:26.582Z,19.30
2018-02-15T23:53:33.916Z,19.73
2018-02-15T23:55:37.595Z,18.80
2018-02-15T23:57:41.461Z,22.53
2018-02-15T23:59:45.458Z,21.70
